Copt Green, United Kingdom
Current Conditions -  °F | °C
As of 6:50 AM on Friday 28 Nov 2014 (Local Time) from EGBB Reporting Station
Haze Haze  
Wind Chill: 50°   Ceiling: 700
Heat Index: 50°   Visibility: 2.8mi
Dew Point: 48°   Wind: 8mph
Humidity: 94%   Direction: 90°E
Pressure: 29.59"   Gusts: NA
Location:  52.34°N, 1.81°W
Report Text: EGBB 280650Z AUTO 09007KT 070V160 4500 HZ BKN007/// OVC019/// 10/09 Q1002
Loading
Personal Weather Stations






























Interactive Weather Map New forecast layout! Learn more

10-Day Weather Forecast

Advertisements
Track Severe Weather on mobile